Aérodrome :
LOGIN :

S'inscrire | Disclaimer

   EN    FR    IT 

 










Légende :    VFR   VFR Marginal   IFR   IFR Intensif   IFR Très Intensif
Visi : 
Plafond : 
>= 8 km
>= 3000ft
5 à 8 km
1000 à 3000 ft
1500m à 5 km
500 à 1000 ft
800 à 1500m
200 à 500 ft
< 800m
< 200 ft
Symboles :   Orages  Brouillard  Fortes neiges  Fortes précipitations  Vent > 20 kt
SIGMETs :   Divers  Orages  Givrage  Turbulence  Onde Orograph.  Cendres Volcan.







- Altitude de l'aérodrome : 1900 ft
- Code IATA : FEZ


GMFF - Fez Saiss

DERNIER METAR :
  • 180800Z 14003KT 100V250 6000 SCT003 08/08 Q1017 REFG NOSIG

METARs EXPIRÉS :
  • 180730Z 16004KT 130V200 2000 0400W R09/1300N FG BKN003 08/08 Q1017 NOSIG
  • 180700Z 24005KT 0200 R27/0150N R09/0150V0200N FG BKN003 09/09 Q1017 NOSIG
  • 180630Z 20006KT 6000 BKN003 BKN080 09/08 Q1017 NOSIG
  • 180600Z 23008KT 6000 SCT006 BKN080 08/07 Q1017 NOSIG
  • 180530Z 23005KT 8000 FEW010 SCT080 BKN200 08/06 Q1017 NOSIG

TAF COR TAF GMFF
Valide du 18 à 06h jusqu'au 19 à 12h UTC


180500Z 1806/1912 24006KT 600 FG BKN003
BECMG 1808/1810 6000 NSW SCT010 BKN080
BECMG 18141818 RA
Pas de NOTAMs connus pour ce terrain.
1 SIGMET publié pour la FIR Casablanca (GMMM) :
 
Orages noyés dans la masse
GMMM SIGMET 01 VALID 180600/181000 GMMC
GMMM CASABLANCA FIR EMBD TS OBS N OF LINE N3537 W00727 - N3231 W0092 4 - N3412 W01058 - N3545 W01055 TOP FL300 MOV NE INTSF=



MET'MAP, la Météo Aéronautique d'un coup d'oeil ! - Copyright ORBIFLY Décembre 2007 - Disclaimer

ORBIFLY MET'MAP TEAM :

Programmation & Développement : Alexandra Zaïnal
Conception & Développement : Baudouin d'Aumeries
Co-Programmation & Développement : Marc-Olivier Méhu
Soutien technique & logistique : Manuel Goepfert

Contact : metmap@orbifly.com




SOURCES & CREDITS :

   NOAA